createdAt,value
2018-01-01T00:01:58.479Z,100.00
2018-01-01T00:04:27.830Z,100.00
2018-01-01T00:06:57.673Z,100.00
2018-01-01T00:09:27.535Z,100.00
2018-01-01T00:11:57.694Z,100.00
2018-01-01T00:14:27.631Z,100.00
2018-01-01T00:16:57.204Z,100.00
2018-01-01T00:19:27.101Z,100.00
2018-01-01T00:21:57.254Z,100.00
2018-01-01T00:24:27.190Z,100.00
2018-01-01T00:26:59.065Z,100.00
2018-01-01T00:29:28.717Z,100.00
2018-01-01T00:31:58.592Z,100.00
2018-01-01T00:34:28.471Z,100.00
2018-01-01T00:36:58.356Z,100.00
2018-01-01T00:39:28.192Z,100.00
2018-01-01T00:41:58.021Z,100.00
2018-01-01T00:44:27.857Z,100.00
2018-01-01T00:46:57.727Z,100.00
2018-01-01T00:49:28.438Z,100.00
2018-01-01T00:51:58.552Z,100.00
2018-01-01T00:54:28.403Z,100.00
2018-01-01T00:56:58.806Z,100.00
2018-01-01T00:59:29.145Z,100.00
2018-01-01T01:02:00.244Z,100.00
2018-01-01T01:04:30.254Z,100.00
2018-01-01T01:06:59.885Z,100.00
2018-01-01T01:09:29.771Z,100.00
2018-01-01T01:11:59.685Z,100.00
2018-01-01T01:14:29.567Z,100.00
2018-01-01T01:16:59.149Z,100.00
2018-01-01T01:19:28.994Z,100.00
2018-01-01T01:21:58.856Z,100.00
2018-01-01T01:24:28.694Z,100.00
2018-01-01T01:26:58.674Z,100.00
2018-01-01T01:29:28.504Z,100.00
2018-01-01T01:31:58.394Z,100.00
2018-01-01T01:34:28.272Z,100.00
2018-01-01T01:36:58.151Z,100.00
2018-01-01T01:39:28.082Z,100.00
2018-01-01T01:41:57.948Z,100.00
2018-01-01T01:44:27.852Z,100.00
2018-01-01T01:46:57.740Z,100.00
2018-01-01T01:49:27.601Z,100.00
2018-01-01T01:51:57.497Z,100.00
2018-01-01T01:54:27.328Z,100.00
2018-01-01T01:56:57.203Z,100.00
2018-01-01T01:59:27.072Z,100.00
2018-01-01T02:01:56.919Z,100.00
2018-01-01T02:04:26.529Z,100.00
2018-01-01T02:06:56.424Z,100.00
2018-01-01T02:09:26.326Z,100.00
2018-01-01T02:11:56.154Z,100.00
2018-01-01T02:14:26.018Z,100.00
2018-01-01T02:16:55.979Z,100.00
2018-01-01T02:19:25.848Z,100.00
2018-01-01T02:21:55.695Z,100.00
2018-01-01T02:24:25.572Z,100.00
2018-01-01T02:26:55.409Z,100.00
2018-01-01T02:29:25.262Z,100.00
2018-01-01T02:31:55.199Z,100.00
2018-01-01T02:34:24.759Z,100.00
2018-01-01T02:36:54.600Z,100.00
2018-01-01T02:39:24.559Z,100.00
2018-01-01T02:41:54.413Z,100.00
2018-01-01T02:44:24.217Z,100.00
2018-01-01T02:46:54.052Z,100.00
2018-01-01T02:49:23.873Z,100.00
2018-01-01T02:51:53.734Z,100.00
2018-01-01T02:54:23.566Z,100.00
2018-01-01T02:56:53.413Z,100.00
2018-01-01T02:59:23.261Z,100.00
2018-01-01T03:01:53.108Z,100.00
2018-01-01T03:04:22.936Z,100.00
2018-01-01T03:06:52.765Z,100.00
2018-01-01T03:09:22.628Z,100.00
2018-01-01T03:11:52.473Z,100.00
2018-01-01T03:14:22.334Z,100.00
2018-01-01T03:16:51.953Z,100.00
2018-01-01T03:19:21.810Z,100.00
2018-01-01T03:21:51.716Z,100.00
2018-01-01T03:24:21.596Z,100.00
2018-01-01T03:26:51.442Z,100.00
2018-01-01T03:29:21.306Z,100.00
2018-01-01T03:31:51.137Z,100.00
2018-01-01T03:34:20.977Z,100.00
2018-01-01T03:36:50.868Z,100.00
2018-01-01T03:39:20.766Z,100.00
2018-01-01T03:41:50.577Z,100.00
2018-01-01T03:44:20.439Z,100.00
2018-01-01T03:46:50.256Z,100.00
2018-01-01T03:49:20.345Z,100.00
2018-01-01T03:51:50.211Z,100.00
2018-01-01T03:54:20.051Z,100.00
2018-01-01T03:56:49.870Z,100.00
2018-01-01T03:59:19.704Z,100.00
2018-01-01T04:01:49.539Z,100.00
2018-01-01T04:04:19.365Z,100.00
2018-01-01T04:06:49.213Z,100.00
2018-01-01T04:09:19.070Z,100.00
2018-01-01T04:11:48.933Z,100.00
2018-01-01T04:14:18.748Z,100.00
2018-01-01T04:16:48.572Z,100.00
2018-01-01T04:19:18.456Z,100.00
2018-01-01T04:21:48.262Z,100.00
2018-01-01T04:24:18.115Z,100.00
2018-01-01T04:26:47.936Z,100.00
2018-01-01T04:29:17.530Z,100.00
2018-01-01T04:31:47.128Z,100.00
2018-01-01T04:34:17.051Z,100.00
2018-01-01T04:36:46.849Z,100.00
2018-01-01T04:39:16.687Z,100.00
2018-01-01T04:41:46.495Z,100.00
2018-01-01T04:44:16.296Z,100.00
2018-01-01T04:46:46.154Z,100.00
2018-01-01T04:49:15.993Z,100.00
2018-01-01T04:51:45.899Z,100.00
2018-01-01T04:54:15.728Z,100.00
2018-01-01T04:56:45.603Z,100.00
2018-01-01T04:59:15.420Z,100.00
2018-01-01T05:01:45.268Z,100.00
2018-01-01T05:04:15.068Z,100.00
2018-01-01T05:06:45.118Z,100.00
2018-01-01T05:09:14.924Z,100.00
2018-01-01T05:11:44.750Z,100.00
2018-01-01T05:14:14.574Z,100.00
2018-01-01T05:16:44.419Z,100.00
2018-01-01T05:19:14.247Z,100.00
2018-01-01T05:21:44.078Z,100.00
2018-01-01T05:24:13.909Z,100.00
2018-01-01T05:26:43.768Z,100.00
2018-01-01T05:29:13.591Z,100.00
2018-01-01T05:31:43.434Z,100.00
2018-01-01T05:34:13.276Z,100.00
2018-01-01T05:36:43.109Z,100.00
2018-01-01T05:39:13.011Z,100.00
2018-01-01T05:41:42.840Z,100.00
2018-01-01T05:44:12.699Z,100.00
2018-01-01T05:46:42.512Z,100.00
2018-01-01T05:49:12.326Z,100.00
2018-01-01T05:51:42.164Z,100.00
2018-01-01T05:54:11.984Z,100.00
2018-01-01T05:56:41.833Z,100.00
2018-01-01T05:59:11.697Z,100.00
2018-01-01T06:01:41.526Z,100.00
2018-01-01T06:04:11.389Z,100.00
2018-01-01T06:06:41.203Z,100.00
2018-01-01T06:09:11.063Z,100.00
2018-01-01T06:11:40.913Z,100.00
2018-01-01T06:14:10.722Z,100.00
2018-01-01T06:16:40.574Z,100.00
2018-01-01T06:19:10.398Z,100.00
2018-01-01T06:21:40.254Z,100.00
2018-01-01T06:24:10.098Z,100.00
2018-01-01T06:26:39.944Z,100.00
2018-01-01T06:29:09.924Z,100.00
2018-01-01T06:31:39.861Z,100.00
2018-01-01T06:34:09.941Z,100.00
2018-01-01T06:36:39.881Z,100.00
2018-01-01T06:39:09.718Z,100.00
2018-01-01T06:41:39.609Z,100.00
2018-01-01T06:44:09.435Z,100.00
2018-01-01T06:46:39.257Z,100.00
2018-01-01T06:49:09.089Z,100.00
2018-01-01T06:51:38.926Z,100.00
2018-01-01T06:54:08.767Z,100.00
2018-01-01T06:56:38.605Z,100.00
2018-01-01T06:59:08.446Z,100.00
2018-01-01T07:01:38.280Z,100.00
2018-01-01T07:04:08.125Z,100.00
2018-01-01T07:06:37.937Z,100.00
2018-01-01T07:09:07.798Z,100.00
2018-01-01T07:11:38.157Z,100.00
2018-01-01T07:14:08.133Z,100.00
2018-01-01T07:16:37.975Z,100.00
2018-01-01T07:19:07.789Z,100.00
2018-01-01T07:21:37.651Z,100.00
2018-01-01T07:24:07.531Z,100.00
2018-01-01T07:26:37.373Z,100.00
2018-01-01T07:29:07.297Z,100.00
2018-01-01T07:31:37.156Z,100.00
2018-01-01T07:34:07.040Z,100.00
2018-01-01T07:36:36.850Z,100.00
2018-01-01T07:39:06.757Z,100.00
2018-01-01T07:41:36.658Z,100.00
2018-01-01T07:44:06.476Z,100.00
2018-01-01T07:46:36.290Z,100.00
2018-01-01T07:49:06.127Z,99.01
2018-01-01T07:51:35.984Z,98.02
2018-01-01T07:54:05.822Z,97.15
2018-01-01T07:56:35.638Z,97.39
2018-01-01T07:59:05.462Z,97.32
2018-01-01T08:01:35.279Z,97.76
2018-01-01T08:04:05.080Z,96.09
2018-01-01T08:06:34.916Z,96.74
2018-01-01T08:09:04.215Z,97.27
2018-01-01T08:11:34.033Z,96.73
2018-01-01T08:14:03.889Z,97.58
2018-01-01T08:16:33.704Z,97.69
2018-01-01T08:19:03.529Z,97.32
2018-01-01T08:21:37.195Z,97.84
2018-01-01T08:24:07.035Z,96.44
2018-01-01T08:26:36.920Z,96.06
2018-01-01T08:29:07.142Z,96.28
2018-01-01T08:31:37.412Z,96.21
2018-01-01T08:34:07.136Z,95.57
2018-01-01T08:36:37.241Z,96.09
2018-01-01T08:39:07.080Z,94.66
2018-01-01T08:41:36.882Z,94.16
2018-01-01T08:44:06.717Z,94.65
2018-01-01T08:46:36.589Z,93.22
2018-01-01T08:49:06.540Z,92.64
2018-01-01T08:51:36.387Z,93.12
2018-01-01T08:54:07.002Z,92.93
2018-01-01T08:56:38.635Z,91.41
2018-01-01T08:59:09.125Z,89.59
2018-01-01T09:01:38.954Z,90.41
2018-01-01T09:04:08.818Z,88.08
2018-01-01T09:06:38.641Z,87.73
2018-01-01T09:09:08.464Z,85.84
2018-01-01T09:11:38.309Z,85.54
2018-01-01T09:14:08.144Z,84.24
2018-01-01T09:16:38.063Z,82.29
2018-01-01T09:19:07.907Z,80.51
2018-01-01T09:21:37.729Z,77.44
2018-01-01T09:24:07.553Z,76.20
2018-01-01T09:26:37.391Z,75.68
2018-01-01T09:29:07.186Z,72.31
2018-01-01T09:31:37.359Z,69.54
2018-01-01T09:34:07.160Z,61.89
2018-01-01T09:36:36.996Z,59.55
2018-01-01T09:39:06.893Z,56.24
2018-01-01T09:41:36.726Z,60.31
2018-01-01T09:44:06.546Z,56.16
2018-01-01T09:46:36.382Z,57.83
2018-01-01T09:49:06.252Z,58.22
2018-01-01T09:51:36.252Z,53.38
2018-01-01T09:54:06.059Z,54.95
2018-01-01T09:56:35.679Z,53.22
2018-01-01T09:59:05.099Z,48.90
2018-01-01T10:01:34.604Z,45.33
2018-01-01T10:04:04.297Z,44.11
2018-01-01T10:06:33.827Z,45.21
2018-01-01T10:09:02.998Z,45.07
2018-01-01T10:11:32.532Z,44.25
2018-01-01T10:14:02.093Z,47.73
2018-01-01T10:16:31.645Z,45.29
2018-01-01T10:19:01.133Z,48.00
2018-01-01T10:21:30.670Z,45.94
2018-01-01T10:24:00.975Z,45.99
2018-01-01T10:26:30.599Z,48.52
2018-01-01T10:29:00.136Z,48.17
2018-01-01T10:31:29.697Z,49.08
2018-01-01T10:33:59.492Z,50.94
2018-01-01T10:36:33.032Z,52.63
2018-01-01T10:39:02.843Z,55.44
2018-01-01T10:41:32.640Z,55.57
2018-01-01T10:44:02.437Z,54.85
2018-01-01T10:46:32.241Z,55.09
2018-01-01T10:49:02.024Z,55.70
2018-01-01T10:51:31.826Z,56.66
2018-01-01T10:54:01.622Z,56.94
2018-01-01T10:56:31.413Z,56.64
2018-01-01T10:59:01.240Z,56.85
2018-01-01T11:01:31.012Z,55.47
2018-01-01T11:04:04.820Z,55.12
2018-01-01T11:06:34.614Z,55.41
2018-01-01T11:09:04.189Z,55.62
2018-01-01T11:11:33.983Z,54.75
2018-01-01T11:14:03.802Z,55.85
2018-01-01T11:16:33.617Z,54.05
2018-01-01T11:19:03.420Z,53.86
2018-01-01T11:21:33.836Z,51.53
2018-01-01T11:24:03.653Z,51.20
2018-01-01T11:26:33.459Z,49.11
2018-01-01T11:29:03.265Z,48.56
2018-01-01T11:31:33.068Z,48.60
2018-01-01T11:34:02.868Z,45.57
2018-01-01T11:36:32.670Z,43.47
2018-01-01T11:39:02.461Z,41.77
2018-01-01T11:41:32.183Z,42.20
2018-01-01T11:44:01.717Z,44.04
2018-01-01T11:46:31.240Z,43.01
2018-01-01T11:49:00.753Z,44.71
2018-01-01T11:51:30.553Z,45.69
2018-01-01T11:54:00.068Z,47.79
2018-01-01T11:56:29.865Z,46.68
2018-01-01T11:58:59.683Z,46.72
2018-01-01T12:01:29.573Z,47.53
2018-01-01T12:03:59.355Z,49.60
2018-01-01T12:06:30.716Z,49.72
2018-01-01T12:09:00.492Z,50.58
2018-01-01T12:11:30.364Z,51.28
2018-01-01T12:14:00.888Z,51.58
2018-01-01T12:16:30.734Z,51.90
2018-01-01T12:19:00.707Z,51.66
2018-01-01T12:21:30.516Z,52.46
2018-01-01T12:24:00.311Z,53.12
2018-01-01T12:26:30.140Z,53.27
2018-01-01T12:28:59.972Z,53.31
2018-01-01T12:31:29.543Z,53.80
2018-01-01T12:33:59.330Z,53.20
2018-01-01T12:36:29.132Z,54.23
2018-01-01T12:38:58.946Z,53.71
2018-01-01T12:41:28.721Z,53.41
2018-01-01T12:43:58.535Z,52.84
2018-01-01T12:46:28.358Z,53.57
2018-01-01T12:48:58.198Z,54.43
2018-01-01T12:51:28.506Z,54.18
2018-01-01T12:53:58.346Z,54.13
2018-01-01T12:56:28.215Z,54.62
2018-01-01T12:58:58.006Z,53.47
2018-01-01T13:01:27.827Z,52.91
2018-01-01T13:03:57.640Z,51.59
2018-01-01T13:06:27.525Z,51.22
2018-01-01T13:08:57.317Z,51.53
2018-01-01T13:11:27.543Z,53.60
2018-01-01T13:13:57.502Z,54.01
2018-01-01T13:16:27.353Z,55.13
2018-01-01T13:18:56.831Z,55.96
2018-01-01T13:21:26.722Z,56.76
2018-01-01T13:23:56.544Z,57.71
2018-01-01T13:26:26.354Z,57.80
2018-01-01T13:28:56.147Z,57.74
2018-01-01T13:31:25.939Z,56.77
2018-01-01T13:33:55.996Z,56.81
2018-01-01T13:36:25.808Z,56.96
2018-01-01T13:38:55.607Z,56.81
2018-01-01T13:41:25.410Z,57.57
2018-01-01T13:43:55.278Z,57.60
2018-01-01T13:46:25.082Z,58.38
2018-01-01T13:48:54.901Z,58.64
2018-01-01T13:51:24.686Z,59.56
2018-01-01T13:53:54.477Z,59.75
2018-01-01T13:56:24.491Z,59.54
2018-01-01T13:58:54.291Z,60.63
2018-01-01T14:01:24.077Z,60.79
2018-01-01T14:03:53.869Z,61.99
2018-01-01T14:06:23.670Z,62.35
2018-01-01T14:08:53.680Z,61.40
2018-01-01T14:11:23.715Z,61.94
2018-01-01T14:13:54.691Z,62.57
2018-01-01T14:16:24.472Z,62.91
2018-01-01T14:18:55.095Z,62.87
2018-01-01T14:21:24.880Z,62.18
2018-01-01T14:23:54.848Z,62.34
2018-01-01T14:26:24.654Z,62.34
2018-01-01T14:28:54.356Z,63.04
2018-01-01T14:31:24.149Z,62.63
2018-01-01T14:34:02.210Z,63.44
2018-01-01T14:36:32.248Z,64.56
2018-01-01T14:39:02.029Z,64.89
2018-01-01T14:41:46.879Z,64.63
2018-01-01T14:44:18.049Z,65.79
2018-01-01T14:46:47.836Z,66.04
2018-01-01T14:49:17.738Z,66.56
2018-01-01T14:51:47.522Z,67.70
2018-01-01T14:54:17.438Z,67.83
2018-01-01T14:56:47.333Z,68.23
2018-01-01T14:59:17.144Z,67.95
2018-01-01T15:01:46.945Z,68.64
2018-01-01T15:04:16.721Z,69.11
2018-01-01T15:06:46.634Z,69.94
2018-01-01T15:09:18.451Z,71.11
2018-01-01T15:11:48.730Z,71.80
2018-01-01T15:14:18.553Z,72.60
2018-01-01T15:16:48.370Z,73.58
2018-01-01T15:19:18.146Z,74.72
2018-01-01T15:21:47.940Z,75.46
2018-01-01T15:24:17.866Z,76.23
2018-01-01T15:26:47.672Z,76.79
2018-01-01T15:29:17.470Z,77.75
2018-01-01T15:31:47.257Z,78.34
2018-01-01T15:34:17.044Z,79.78
2018-01-01T15:36:50.697Z,80.40
2018-01-01T15:39:20.490Z,81.21
2018-01-01T15:41:50.274Z,81.59
2018-01-01T15:44:20.073Z,81.18
2018-01-01T15:46:49.868Z,81.86
2018-01-01T15:49:19.639Z,82.69
2018-01-01T15:51:49.914Z,83.83
2018-01-01T15:54:19.710Z,84.59
2018-01-01T15:56:49.471Z,84.95
2018-01-01T15:59:19.042Z,85.31
2018-01-01T16:01:48.909Z,85.79
2018-01-01T16:04:18.720Z,86.12
2018-01-01T16:06:48.547Z,86.38
2018-01-01T16:09:18.146Z,87.68
2018-01-01T16:11:48.083Z,87.37
2018-01-01T16:14:17.862Z,87.68
2018-01-01T16:16:47.738Z,88.65
2018-01-01T16:19:17.513Z,89.16
2018-01-01T16:21:47.306Z,89.99
2018-01-01T16:24:18.048Z,90.19
2018-01-01T16:26:47.895Z,90.74
2018-01-01T16:29:17.705Z,91.08
2018-01-01T16:31:54.139Z,91.35
2018-01-01T16:34:26.626Z,91.70
2018-01-01T16:36:56.427Z,91.80
2018-01-01T16:39:26.239Z,91.88
2018-01-01T16:41:56.040Z,92.07
2018-01-01T16:44:25.899Z,91.85
2018-01-01T16:46:55.684Z,92.15
2018-01-01T16:49:25.479Z,92.54
2018-01-01T16:51:55.278Z,92.80
2018-01-01T16:54:25.109Z,93.24
2018-01-01T16:56:54.890Z,93.66
2018-01-01T16:59:24.695Z,94.19
2018-01-01T17:01:54.495Z,94.67
2018-01-01T17:04:24.294Z,94.76
2018-01-01T17:06:54.113Z,94.90
2018-01-01T17:09:23.883Z,94.88
2018-01-01T17:11:53.674Z,94.64
2018-01-01T17:14:23.464Z,94.71
2018-01-01T17:16:53.257Z,95.08
2018-01-01T17:19:23.051Z,95.36
2018-01-01T17:21:53.409Z,95.88
2018-01-01T17:24:23.241Z,96.12
2018-01-01T17:26:53.026Z,96.26
2018-01-01T17:29:22.906Z,96.43
2018-01-01T17:31:52.528Z,96.73
2018-01-01T17:34:23.304Z,97.07
2018-01-01T17:36:52.907Z,97.11
2018-01-01T17:39:22.509Z,97.34
2018-01-01T17:41:52.099Z,97.48
2018-01-01T17:44:21.790Z,97.56
2018-01-01T17:46:51.406Z,97.57
2018-01-01T17:49:20.828Z,97.66
2018-01-01T17:51:50.966Z,97.84
2018-01-01T17:54:20.576Z,98.04
2018-01-01T17:56:50.819Z,98.54
2018-01-01T17:59:21.434Z,98.70
2018-01-01T18:01:51.996Z,98.60
2018-01-01T18:04:22.595Z,98.69
2018-01-01T18:06:53.705Z,98.82
2018-01-01T18:09:23.624Z,99.12
2018-01-01T18:11:53.422Z,99.35
2018-01-01T18:14:26.536Z,99.68
2018-01-01T18:16:58.772Z,99.94
2018-01-01T18:19:29.356Z,100.00
2018-01-01T18:21:59.373Z,99.95
2018-01-01T18:24:29.318Z,100.00
2018-01-01T18:27:00.367Z,100.00
2018-01-01T18:29:30.607Z,100.00
2018-01-01T18:31:59.863Z,100.00
2018-01-01T18:34:30.582Z,100.00
2018-01-01T18:37:00.471Z,100.00
2018-01-01T18:39:30.562Z,100.00
2018-01-01T18:42:00.652Z,100.00
2018-01-01T18:44:30.558Z,100.00
2018-01-01T18:47:01.001Z,100.00
2018-01-01T18:49:30.897Z,100.00
2018-01-01T18:52:00.734Z,100.00
2018-01-01T18:54:30.553Z,100.00
2018-01-01T18:57:01.356Z,100.00
2018-01-01T18:59:31.168Z,100.00
2018-01-01T19:02:00.972Z,100.00
2018-01-01T19:04:30.785Z,100.00
2018-01-01T19:07:00.629Z,100.00
2018-01-01T19:09:30.537Z,100.00
2018-01-01T19:12:00.356Z,100.00
2018-01-01T19:14:30.356Z,100.00
2018-01-01T19:17:00.457Z,100.00
2018-01-01T19:19:30.357Z,100.00
2018-01-01T19:22:00.157Z,100.00
2018-01-01T19:24:29.992Z,100.00
2018-01-01T19:27:00.163Z,100.00
2018-01-01T19:29:30.013Z,100.00
2018-01-01T19:31:59.815Z,100.00
2018-01-01T19:34:29.664Z,100.00
2018-01-01T19:36:59.501Z,100.00
2018-01-01T19:39:30.398Z,100.00
2018-01-01T19:42:09.836Z,100.00
2018-01-01T19:44:42.065Z,100.00
2018-01-01T19:47:12.391Z,100.00
2018-01-01T19:49:42.365Z,100.00
2018-01-01T19:52:13.247Z,100.00
2018-01-01T19:54:44.655Z,100.00
2018-01-01T19:57:15.208Z,100.00
2018-01-01T19:59:45.239Z,100.00
2018-01-01T20:02:15.478Z,100.00
2018-01-01T20:04:45.975Z,100.00
2018-01-01T20:07:16.140Z,100.00
2018-01-01T20:09:46.122Z,100.00
2018-01-01T20:12:25.094Z,100.00
2018-01-01T20:15:06.879Z,100.00
2018-01-01T20:17:37.184Z,100.00
2018-01-01T20:20:07.118Z,100.00
2018-01-01T20:22:47.454Z,100.00
2018-01-01T20:25:19.084Z,100.00
2018-01-01T20:27:56.107Z,100.00
2018-01-01T20:30:27.589Z,100.00
2018-01-01T20:32:57.900Z,100.00
2018-01-01T20:35:27.789Z,100.00
2018-01-01T20:37:57.756Z,100.00
2018-01-01T20:40:27.833Z,100.00
2018-01-01T20:42:57.797Z,100.00
2018-01-01T20:45:27.696Z,100.00
2018-01-01T20:47:57.701Z,100.00
2018-01-01T20:50:27.686Z,100.00
2018-01-01T20:52:57.675Z,100.00
2018-01-01T20:55:27.618Z,100.00
2018-01-01T20:57:58.840Z,100.00
2018-01-01T21:00:28.598Z,100.00
2018-01-01T21:02:58.588Z,100.00
2018-01-01T21:05:29.833Z,100.00
2018-01-01T21:08:00.089Z,100.00
2018-01-01T21:10:30.241Z,100.00
2018-01-01T21:13:00.402Z,100.00
2018-01-01T21:15:30.412Z,100.00
2018-01-01T21:18:00.192Z,100.00
2018-01-01T21:20:30.083Z,100.00
2018-01-01T21:23:00.067Z,100.00
2018-01-01T21:25:29.958Z,100.00
2018-01-01T21:27:59.964Z,100.00
2018-01-01T21:30:29.944Z,100.00
2018-01-01T21:33:05.686Z,100.00
2018-01-01T21:35:37.790Z,100.00
2018-01-01T21:38:08.444Z,100.00
2018-01-01T21:40:38.276Z,100.00
2018-01-01T21:43:08.122Z,100.00
2018-01-01T21:45:38.071Z,100.00
2018-01-01T21:48:07.927Z,100.00
2018-01-01T21:50:37.805Z,100.00
2018-01-01T21:53:07.723Z,100.00
2018-01-01T21:55:37.631Z,100.00
2018-01-01T21:58:07.539Z,100.00
2018-01-01T22:00:37.420Z,100.00
2018-01-01T22:03:07.274Z,100.00
2018-01-01T22:05:37.172Z,100.00
2018-01-01T22:08:07.050Z,100.00
2018-01-01T22:10:37.033Z,100.00
2018-01-01T22:13:07.001Z,100.00
2018-01-01T22:15:37.061Z,100.00
2018-01-01T22:18:07.510Z,100.00
2018-01-01T22:20:37.411Z,100.00
2018-01-01T22:23:07.309Z,100.00
2018-01-01T22:25:37.168Z,100.00
2018-01-01T22:28:07.733Z,100.00
2018-01-01T22:30:38.322Z,100.00
2018-01-01T22:33:08.249Z,100.00
2018-01-01T22:35:37.855Z,100.00
2018-01-01T22:38:07.867Z,100.00
2018-01-01T22:40:37.753Z,100.00
2018-01-01T22:43:07.602Z,100.00
2018-01-01T22:45:37.442Z,100.00
2018-01-01T22:48:07.380Z,100.00
2018-01-01T22:50:37.185Z,100.00
2018-01-01T22:53:07.082Z,100.00
2018-01-01T22:55:37.141Z,100.00
2018-01-01T22:58:07.083Z,100.00
2018-01-01T23:00:36.326Z,100.00
2018-01-01T23:03:17.453Z,100.00
2018-01-01T23:05:49.581Z,100.00
2018-01-01T23:08:20.263Z,100.00
2018-01-01T23:10:50.241Z,100.00
2018-01-01T23:13:20.115Z,100.00
2018-01-01T23:15:50.049Z,100.00
2018-01-01T23:18:19.863Z,100.00
2018-01-01T23:20:49.912Z,98.85
2018-01-01T23:23:19.759Z,97.34
2018-01-01T23:25:49.606Z,97.04
2018-01-01T23:28:19.497Z,95.12
2018-01-01T23:30:49.366Z,94.76
2018-01-01T23:33:19.790Z,95.33
2018-01-01T23:35:49.782Z,94.43
2018-01-01T23:38:19.673Z,94.24
2018-01-01T23:40:49.711Z,93.49
2018-01-01T23:43:19.525Z,92.82
2018-01-01T23:45:49.396Z,93.55
2018-01-01T23:48:19.316Z,93.75
2018-01-01T23:50:49.306Z,93.30
2018-01-01T23:53:19.129Z,91.91
2018-01-01T23:55:49.057Z,91.58
2018-01-01T23:58:18.894Z,89.22
